Time;durP1;ratioP1;P1;durP2;ratioP2;P2;SDS_P1;SDS_P2;PMS_P1;PMS_P2;Temp;Humidity;BMP_temperature;BMP_pressure;BME280_temperature;BME280_humidity;BME280_pressure;Samples;Min_cycle;Max_cycle;Signal;HPM_P1;HPM_P2
2022/08/17 00:00:20;;;;;;;14.88;10.65;;;;;;;19.97;87.99;99798.91;5074127;28;20104;-76
2022/08/17 00:03:01;;;;;;;12.55;10.50;;;;;;;19.93;87.25;99804.25;5073157;28;20048;-76
2022/08/17 00:05:28;;;;;;;14.43;10.23;;;;;;;19.90;86.68;99802.53;5073862;28;20024;-76
2022/08/17 00:07:54;;;;;;;12.43;9.70;;;;;;;19.86;86.58;99804.97;5073400;28;20044;-75
2022/08/17 00:10:19;;;;;;;16.13;11.35;;;;;;;19.86;87.49;99811.56;5072415;28;20024;-75
2022/08/17 00:12:44;;;;;;;20.20;11.38;;;;;;;19.84;87.65;99811.38;5073474;28;20477;-76
2022/08/17 00:15:12;;;;;;;15.07;10.57;;;;;;;19.84;88.43;99804.78;5073626;28;20029;-76
2022/08/17 00:17:38;;;;;;;14.38;10.40;;;;;;;19.85;87.92;99812.94;5073560;28;20423;-76
2022/08/17 00:20:04;;;;;;;17.80;9.82;;;;;;;19.90;87.82;99803.31;5075658;28;20024;-76
2022/08/17 00:22:30;;;;;;;15.52;10.68;;;;;;;19.97;87.36;99804.69;5075876;28;20025;-76
2022/08/17 00:24:55;;;;;;;12.98;10.40;;;;;;;20.03;87.14;99802.44;5074796;28;20078;-76
2022/08/17 00:27:20;;;;;;;14.45;10.18;;;;;;;20.01;86.35;99807.22;5076207;28;20027;-76
2022/08/17 00:29:46;;;;;;;12.75;10.38;;;;;;;20.03;86.07;99805.31;5075502;28;20023;-76
2022/08/17 00:32:13;;;;;;;14.00;10.15;;;;;;;20.07;86.18;99805.72;5076441;28;20031;-77
2022/08/17 00:34:38;;;;;;;16.90;11.45;;;;;;;20.08;86.00;99801.47;5076095;28;20074;-76
2022/08/17 00:37:04;;;;;;;14.25;11.60;;;;;;;20.12;86.23;99801.88;5074789;28;20118;-77
2022/08/17 00:39:29;;;;;;;13.55;10.23;;;;;;;20.09;85.91;99808.06;5075664;28;20036;-77
2022/08/17 00:41:54;;;;;;;13.50;11.02;;;;;;;20.08;85.42;99807.28;5074149;28;20115;-76
2022/08/17 00:44:20;;;;;;;13.40;10.95;;;;;;;20.03;85.34;99802.44;5075401;28;20103;-76
2022/08/17 00:46:46;;;;;;;16.95;11.40;;;;;;;20.02;85.38;99803.00;5075390;28;20028;-77
2022/08/17 00:49:13;;;;;;;15.70;10.77;;;;;;;20.07;85.56;99805.72;5075401;28;20024;-76
2022/08/17 00:52:05;;;;;;;18.42;11.00;;;;;;;20.12;84.97;99807.69;5075311;28;20024;-76
2022/08/17 00:54:33;;;;;;;17.00;11.32;;;;;;;20.12;84.81;99807.69;5074180;28;20032;-76
2022/08/17 00:56:58;;;;;;;16.83;11.43;;;;;;;20.13;84.91;99814.28;5075157;28;20032;-74
2022/08/17 00:59:29;;;;;;;14.45;11.68;;;;;;;20.08;84.91;99809.41;5075059;28;20099;-74
2022/08/17 01:01:55;;;;;;;18.00;11.75;;;;;;;20.06;84.90;99800.50;5073913;28;20032;-74
2022/08/17 01:04:21;;;;;;;15.85;11.57;;;;;;;20.07;85.08;99811.53;5073699;28;20021;-75
2022/08/17 01:06:48;;;;;;;15.63;11.95;;;;;;;20.05;85.75;99801.84;5074507;28;20035;-76
2022/08/17 01:09:15;;;;;;;19.30;11.77;;;;;;;20.01;85.47;99805.09;5074363;28;20119;-73
2022/08/17 01:11:41;;;;;;;14.52;11.15;;;;;;;20.00;85.92;99815.19;5073674;28;20377;-75
2022/08/17 01:14:07;;;;;;;14.02;11.50;;;;;;;19.95;86.32;99810.31;5056870;28;20489;-76
2022/08/17 01:16:33;;;;;;;12.50;10.55;;;;;;;19.93;86.59;99812.97;5074654;28;20020;-76
2022/08/17 01:19:03;;;;;;;17.55;11.73;;;;;;;19.88;86.95;99808.09;5074544;28;20036;-73
2022/08/17 01:21:43;;;;;;;16.70;10.63;;;;;;;19.83;87.20;99801.13;5074604;28;20024;-74
2022/08/17 01:24:09;;;;;;;16.25;11.68;;;;;;;19.79;87.59;99802.84;5074653;28;20060;-74
2022/08/17 01:26:37;;;;;;;13.52;11.48;;;;;;;19.75;87.94;99808.22;5073441;28;20055;-74
2022/08/17 01:29:04;;;;;;;14.18;11.43;;;;;;;19.72;88.05;99804.31;5073131;28;20033;-75
2022/08/17 01:31:35;;;;;;;17.52;11.40;;;;;;;19.70;88.18;99800.44;5074349;28;20029;-74
2022/08/17 01:34:03;;;;;;;21.00;12.98;;;;;;;19.68;88.36;99803.13;5072978;28;20036;-74
2022/08/17 01:36:29;;;;;;;15.43;10.98;;;;;;;19.64;88.70;99797.72;5072925;28;20056;-74
2022/08/17 01:38:55;;;;;;;17.45;12.27;;;;;;;19.61;88.50;99804.63;5072615;28;20109;-73
2022/08/17 01:41:21;;;;;;;18.65;12.07;;;;;;;19.60;88.71;99802.31;5072323;28;20032;-75
2022/08/17 01:43:50;;;;;;;14.95;11.15;;;;;;;19.59;89.17;99806.56;5070746;28;20697;-73
2022/08/17 01:46:20;;;;;;;14.73;11.43;;;;;;;19.57;89.31;99807.09;5070570;28;20025;-74
2022/08/17 01:48:46;;;;;;;17.73;12.23;;;;;;;19.53;89.54;99798.78;5071703;28;20016;-74
2022/08/17 01:51:13;;;;;;;17.27;11.73;;;;;;;19.47;89.78;99798.16;5070947;28;20020;-74
2022/08/17 01:53:41;;;;;;;17.20;11.85;;;;;;;19.50;89.80;99810.75;5072399;28;20059;-75
2022/08/17 01:56:16;;;;;;;14.70;11.40;;;;;;;19.47;89.83;99812.63;5072067;28;20063;-74
2022/08/17 01:58:42;;;;;;;19.50;12.93;;;;;;;19.46;89.81;99810.34;5054421;28;20487;-74
2022/08/17 02:01:09;;;;;;;15.27;12.18;;;;;;;19.45;90.28;99800.84;5071751;28;20075;-74
2022/08/17 02:03:35;;;;;;;17.20;12.20;;;;;;;19.43;90.05;99806.44;5071511;28;20026;-73
2022/08/17 02:06:01;;;;;;;16.88;13.35;;;;;;;19.40;90.09;99796.00;5071814;28;20403;-74
2022/08/17 02:08:27;;;;;;;18.63;12.52;;;;;;;19.39;90.26;99793.66;5069816;28;20106;-74
2022/08/17 02:10:53;;;;;;;16.63;12.25;;;;;;;19.29;90.01;99798.38;5071469;28;20435;-74
2022/08/17 02:13:19;;;;;;;16.80;12.48;;;;;;;19.34;90.51;99798.25;5071964;28;20469;-74
2022/08/17 02:15:45;;;;;;;16.23;12.43;;;;;;;19.30;90.80;99802.84;5073528;28;20025;-73
2022/08/17 02:18:10;;;;;;;18.05;13.98;;;;;;;19.29;90.75;99795.50;5072249;28;20107;-75
2022/08/17 02:20:37;;;;;;;20.13;13.95;;;;;;;19.23;90.95;99797.75;5073173;28;20050;-73
2022/08/17 02:23:04;;;;;;;15.30;12.75;;;;;;;19.19;90.85;99789.44;5072407;28;20016;-73
2022/08/17 02:25:31;;;;;;;21.35;13.18;;;;;;;19.19;91.18;99788.66;5072311;28;20032;-74
2022/08/17 02:27:57;;;;;;;17.50;13.15;;;;;;;19.15;90.84;99786.13;5072386;28;20050;-73
2022/08/17 02:30:23;;;;;;;20.02;14.02;;;;;;;19.14;90.98;99789.56;5072090;28;20381;-73
2022/08/17 02:32:51;;;;;;;18.38;12.90;;;;;;;19.08;90.98;99787.56;5073350;28;20020;-74
2022/08/17 02:35:16;;;;;;;18.63;12.57;;;;;;;19.00;90.98;99786.72;5073507;28;20020;-74
2022/08/17 02:37:41;;;;;;;18.40;13.60;;;;;;;18.86;90.99;99769.97;5073491;28;20020;-77
2022/08/17 02:40:08;;;;;;;17.17;13.00;;;;;;;18.89;91.31;99781.19;5073205;28;20029;-78
2022/08/17 02:42:37;;;;;;;18.90;13.60;;;;;;;18.91;91.54;99787.22;5073127;28;20524;-76
2022/08/17 02:45:04;;;;;;;14.05;12.55;;;;;;;;;;5073251;28;20020;-76
2022/08/17 02:47:30;;;;;;;19.60;12.38;;;;;;;18.83;92.36;99785.56;5072100;28;20047;-76
2022/08/17 02:49:55;;;;;;;18.10;13.50;;;;;;;18.89;91.99;99800.69;5071777;28;20449;-75
2022/08/17 02:52:20;;;;;;;19.15;12.80;;;;;;;18.91;92.28;99792.22;5073459;28;20062;-77
2022/08/17 02:54:46;;;;;;;17.92;12.85;;;;;;;18.94;92.26;99791.88;5072022;28;20083;-77
2022/08/17 02:57:11;;;;;;;19.20;12.95;;;;;;;18.92;92.49;99796.69;5073120;28;20035;-76
2022/08/17 02:59:38;;;;;;;17.42;12.70;;;;;;;18.95;92.67;99796.31;5073062;28;20485;-75
2022/08/17 03:02:06;;;;;;;18.95;12.15;;;;;;;18.99;92.50;99798.84;5072080;28;20077;-76
2022/08/17 03:04:31;;;;;;;18.48;13.10;;;;;;;18.98;92.41;99800.19;5073480;28;20033;-75
2022/08/17 03:06:56;;;;;;;18.13;13.07;;;;;;;19.02;92.00;99812.97;5073074;28;20061;-76
2022/08/17 03:09:22;;;;;;;18.35;14.45;;;;;;;19.00;92.36;99809.88;5071940;28;20032;-76
2022/08/17 03:11:50;;;;;;;20.55;13.57;;;;;;;18.98;92.55;99811.78;5072892;28;20469;-76
2022/08/17 03:14:17;;;;;;;16.50;13.55;;;;;;;18.97;92.10;99816.00;5073485;28;20112;-78
2022/08/17 03:16:42;;;;;;;20.67;14.73;;;;;;;18.93;92.18;99812.69;5071780;28;20378;-77
2022/08/17 03:19:07;;;;;;;21.58;13.52;;;;;;;18.91;92.21;99819.06;5072895;28;20029;-76
2022/08/17 03:21:33;;;;;;;18.48;14.40;;;;;;;18.90;92.53;99808.03;5073067;28;20461;-77
2022/08/17 03:23:58;;;;;;;17.27;13.15;;;;;;;18.88;92.12;99816.50;5072983;28;20040;-78
2022/08/17 03:26:24;;;;;;;23.38;14.18;;;;;;;18.91;92.56;99824.84;5072984;28;20389;-77
2022/08/17 03:32:13;;;;;;;18.60;13.30;;;;;;;18.91;92.46;99824.06;5076058;28;20433;-76
2022/08/17 03:34:38;;;;;;;18.08;14.60;;;;;;;18.91;92.52;99826.97;5076949;28;20060;-77
2022/08/17 03:37:03;;;;;;;21.30;14.25;;;;;;;18.84;93.04;99816.06;5075953;28;20121;-77
2022/08/17 03:39:29;;;;;;;20.65;14.15;;;;;;;18.87;93.17;99827.31;5076595;28;20080;-77
2022/08/17 03:42:07;;;;;;;24.77;15.20;;;;;;;18.88;93.01;99828.09;5076593;28;20033;-77
2022/08/17 03:44:33;;;;;;;21.13;14.93;;;;;;;18.88;93.34;99825.19;5076442;28;20056;-77
2022/08/17 03:57:55;;;;;;;16.58;13.90;;;;;;;18.93;92.42;99838.75;5076446;28;20554;-77
2022/08/17 04:00:20;;;;;;;29.33;17.77;;;;;;;18.88;91.98;99833.88;5076148;28;20024;-76
2022/08/17 04:02:46;;;;;;;19.15;13.10;;;;;;;18.88;91.64;99842.56;5075012;28;20107;-76
2022/08/17 04:05:11;;;;;;;16.38;13.02;;;;;;;18.88;92.15;99834.66;5074832;28;20032;-76
2022/08/17 04:07:37;;;;;;;23.98;15.23;;;;;;;18.92;92.21;99837.22;5075655;28;20495;-76
2022/08/17 04:10:03;;;;;;;26.65;14.27;;;;;;;18.93;91.84;99856.13;5075787;28;20384;-77
2022/08/17 04:12:42;;;;;;;24.25;14.13;;;;;;;18.96;91.36;99847.13;5074489;28;20426;-75
2022/08/17 04:15:08;;;;;;;27.30;13.80;;;;;;;19.04;91.43;99850.06;5076113;28;20111;-76
2022/08/17 04:17:34;;;;;;;20.00;14.23;;;;;;;19.06;91.50;99851.09;5075885;28;20108;-76
2022/08/17 04:19:59;;;;;;;20.70;13.90;;;;;;;19.08;91.21;99845.50;5076068;28;20029;-76
2022/08/17 04:22:25;;;;;;;23.98;14.43;;;;;;;19.14;90.92;99859.88;5067532;28;20461;-76
2022/08/17 04:24:51;;;;;;;19.92;13.70;;;;;;;19.15;90.41;99855.63;5037474;28;20032;-75
2022/08/17 04:27:16;;;;;;;20.85;14.10;;;;;;;19.22;90.99;99871.53;5055992;28;20098;-77
2022/08/17 04:29:43;;;;;;;19.25;13.18;;;;;;;19.23;90.25;99861.50;5056321;28;20099;-76
2022/08/17 04:32:09;;;;;;;19.38;13.68;;;;;;;19.31;90.49;99868.94;5071387;28;20068;-76
2022/08/17 04:34:35;;;;;;;19.10;14.25;;;;;;;19.38;90.84;99867.44;5073457;28;20086;-77
2022/08/17 04:37:01;;;;;;;25.17;16.75;;;;;;;19.45;90.98;99878.34;5059094;28;20025;-74
2022/08/17 04:39:27;;;;;;;27.10;14.57;;;;;;;19.53;90.69;99873.38;5064630;28;20144;-75
2022/08/17 04:42:06;;;;;;;19.70;13.38;;;;;;;19.60;90.02;99872.66;5065087;28;20420;-75
2022/08/17 04:44:34;;;;;;;21.77;13.73;;;;;;;19.70;90.26;99875.84;5071950;28;20043;-75
2022/08/17 04:47:00;;;;;;;19.67;13.70;;;;;;;19.75;89.10;99872.00;5063112;28;20082;-75
2022/08/17 04:49:27;;;;;;;24.38;14.82;;;;;;;19.87;88.46;99873.25;5059984;28;20466;-74
2022/08/17 04:51:57;;;;;;;22.15;13.07;;;;;;;19.95;88.53;99877.78;5053690;28;20383;-74
2022/08/17 04:54:25;;;;;;;18.35;11.90;;;;;;;20.01;88.48;99868.94;5055212;28;20086;-74
2022/08/17 04:57:05;;;;;;;21.35;14.35;;;;;;;20.15;87.92;99881.22;5055696;28;20496;-74
2022/08/17 04:59:31;;;;;;;18.20;13.38;;;;;;;20.20;86.92;99869.44;5054502;28;20029;-75
2022/08/17 05:01:56;;;;;;;22.92;13.38;;;;;;;20.27;86.08;99873.72;5056455;28;20103;-74
2022/08/17 05:04:24;;;;;;;17.92;13.35;;;;;;;20.35;85.39;99863.72;5054006;28;20533;-74
2022/08/17 05:06:53;;;;;;;20.10;13.48;;;;;;;20.44;85.16;99865.31;5054833;28;20036;-75
2022/08/17 05:09:18;;;;;;;16.65;9.50;;;;;;;20.53;84.72;99870.59;5055693;28;20028;-76
2022/08/17 05:11:47;;;;;;;20.17;12.77;;;;;;;20.70;84.03;99873.78;5053932;28;20029;-74
2022/08/17 05:14:14;;;;;;;18.67;11.80;;;;;;;20.85;83.42;99875.19;5053573;28;20389;-76
2022/08/17 05:16:41;;;;;;;15.05;10.40;;;;;;;20.92;81.86;99878.13;5054561;28;20098;-74
2022/08/17 05:19:08;;;;;;;17.42;10.73;;;;;;;21.10;81.07;99879.13;5054922;28;20032;-75
2022/08/17 05:21:33;;;;;;;17.13;10.43;;;;;;;21.33;80.54;99876.28;5054456;28;20482;-74
2022/08/17 05:24:02;;;;;;;20.95;10.98;;;;;;;21.57;80.55;99879.44;5074385;28;20052;-73
2022/08/17 05:26:27;;;;;;;17.60;11.07;;;;;;;21.67;78.69;99882.53;5074449;28;20040;-75
2022/08/17 05:28:56;;;;;;;16.50;10.85;;;;;;;21.84;78.91;99871.09;5056207;28;20446;-73
2022/08/17 05:31:22;;;;;;;18.67;11.15;;;;;;;21.99;79.51;99865.25;5072789;28;20051;-73
2022/08/17 05:33:48;;;;;;;19.63;11.93;;;;;;;22.06;77.61;99867.38;5073141;28;20462;-73
2022/08/17 05:36:14;;;;;;;19.23;11.43;;;;;;;22.07;75.29;99871.06;5072858;28;20037;-73
2022/08/17 05:38:40;;;;;;;15.43;10.70;;;;;;;22.13;74.25;99871.63;5072879;28;20051;-74
2022/08/17 05:41:07;;;;;;;16.05;10.70;;;;;;;22.21;74.39;99883.28;5072719;28;20127;-73
2022/08/17 05:43:38;;;;;;;18.48;10.57;;;;;;;22.29;74.84;99872.41;5073889;28;20027;-75
2022/08/17 05:46:10;;;;;;;13.23;9.43;;;;;;;22.41;75.53;99879.38;5073653;28;20389;-73
2022/08/17 05:48:37;;;;;;;;;;;;;;;22.47;74.33;99868.28;5056213;28;20016;-73
2022/08/17 05:51:21;;;;;;;16.75;10.13;;;;;;;22.53;73.94;99871.72;5072553;28;20388;-74
2022/08/17 05:53:52;;;;;;;12.18;9.90;;;;;;;22.55;71.70;99871.16;5073213;28;20043;-73
2022/08/17 05:57:12;;;;;;;17.25;9.88;;;;;;;22.68;71.00;99870.91;5073323;28;20472;-75
2022/08/17 05:59:49;;;;;;;75.28;18.17;;;;;;;22.80;72.11;99875.72;5031804;28;20474;-74
2022/08/17 06:02:20;;;;;;;35.85;12.73;;;;;;;22.90;71.31;99884.63;5072636;28;20123;-74
2022/08/17 06:04:52;;;;;;;11.35;8.80;;;;;;;23.00;71.28;99876.81;5073343;28;20493;-75
2022/08/17 06:07:20;;;;;;;13.60;9.32;;;;;;;23.07;70.20;99878.91;5073281;28;20049;-74
2022/08/17 06:09:53;;;;;;;15.00;9.70;;;;;;;23.09;69.11;99887.06;5072559;28;20025;-75
2022/08/17 06:12:32;;;;;;;18.75;9.27;;;;;;;23.20;69.18;99892.44;5072388;28;20092;-75
2022/08/17 06:15:06;;;;;;;14.75;9.90;;;;;;;23.26;67.45;99884.25;5072517;28;20031;-74
2022/08/17 06:17:32;;;;;;;14.73;9.27;;;;;;;23.36;68.59;99882.22;5074058;28;20020;-74
2022/08/17 06:20:01;;;;;;;13.45;9.38;;;;;;;23.58;69.49;99887.16;5073565;28;20424;-75
2022/08/17 06:22:32;;;;;;;18.85;9.60;;;;;;;23.71;67.54;99888.97;5073492;28;20032;-73
2022/08/17 06:25:00;;;;;;;12.67;8.60;;;;;;;23.90;68.45;99886.31;5055761;28;20028;-76
2022/08/17 06:27:40;;;;;;;23.70;11.88;;;;;;;24.10;68.93;99884.38;5073291;28;20282;-75
2022/08/17 06:30:15;;;;;;;32.17;11.90;;;;;;;24.27;67.76;99880.72;5072182;28;20035;-75
2022/08/17 06:32:45;;;;;;;13.63;8.30;;;;;;;24.34;65.42;99882.78;5072280;28;20055;-74
2022/08/17 06:35:14;;;;;;;14.02;8.90;;;;;;;24.42;61.58;99895.16;5071997;28;20028;-76
2022/08/17 06:37:47;;;;;;;11.25;8.10;;;;;;;24.46;60.47;99887.50;5073383;28;20025;-74
2022/08/17 06:40:19;;;;;;;22.65;10.45;;;;;;;25.64;62.46;99894.34;5071445;28;20060;-73
2022/08/17 06:43:09;;;;;;;9.05;7.45;;;;;;;28.15;58.29;99881.84;5073260;28;20033;-75
2022/08/17 06:45:39;;;;;;;20.15;8.57;;;;;;;30.80;47.04;99874.81;5052120;28;20393;-75
2022/08/17 06:48:23;;;;;;;13.82;7.72;;;;;;;33.32;45.03;99870.13;5038811;28;20031;-74
2022/08/17 06:50:58;;;;;;;11.80;7.35;;;;;;;35.14;39.15;99874.72;5071627;28;20036;-74
2022/08/17 06:53:36;;;;;;;12.13;8.50;;;;;;;36.22;36.66;99877.53;5071856;28;20032;-73
2022/08/17 06:56:09;;;;;;;11.38;7.65;;;;;;;37.28;33.82;99887.97;5073109;28;20067;-73
2022/08/17 06:58:36;;;;;;;17.45;7.80;;;;;;;38.54;35.92;99884.44;5054792;28;20033;-74
2022/08/17 07:01:09;;;;;;;15.02;7.90;;;;;;;39.19;31.50;99897.38;5071699;28;20036;-75
2022/08/17 07:03:40;;;;;;;53.58;9.93;;;;;;;39.60;27.63;99902.88;5071555;28;20027;-75
2022/08/17 07:06:19;;;;;;;15.93;8.00;;;;;;;40.73;30.37;99888.88;5074768;28;20028;-74
2022/08/17 07:08:53;;;;;;;12.77;7.93;;;;;;;41.12;27.95;99894.09;5075470;28;20049;-74
2022/08/17 07:11:26;;;;;;;12.40;6.88;;;;;;;41.26;26.98;99902.56;5076784;28;20070;-73
2022/08/17 07:14:16;;;;;;;11.25;7.10;;;;;;;42.01;26.64;99903.75;5058924;28;20025;-74
2022/08/17 07:16:45;;;;;;;14.07;7.05;;;;;;;42.58;25.86;99899.94;5075623;28;20020;-74
2022/08/17 07:19:13;;;;;;;81.70;16.27;;;;;;;42.96;24.34;99907.84;5075362;28;20025;-75
2022/08/17 07:21:45;;;;;;;44.70;12.65;;;;;;;43.57;23.75;99918.19;5075474;28;20077;-75
2022/08/17 07:24:29;;;;;;;12.00;7.60;;;;;;;43.22;21.82;99916.41;5076637;28;20081;-75
2022/08/17 07:27:09;;;;;;;9.20;6.72;;;;;;;43.72;21.58;99916.78;5076645;28;20039;-79
2022/08/17 07:29:41;;;;;;;43.58;12.20;;;;;;;44.19;22.49;99926.88;5076581;28;20054;-80
2022/08/17 07:32:07;;;;;;;8.05;6.72;;;;;;;44.61;22.33;99917.28;5076794;28;20025;-81
2022/08/17 07:34:59;;;;;;;9.77;6.85;;;;;;;45.01;20.82;99912.84;5041763;28;20028;-79
2022/08/17 07:37:25;;;;;;;14.98;7.20;;;;;;;45.41;21.83;99918.91;5075262;28;20024;-80
2022/08/17 07:39:51;;;;;;;13.10;6.55;;;;;;;45.71;19.01;99923.41;5075002;28;20039;-79
2022/08/17 07:42:16;;;;;;;8.95;6.85;;;;;;;45.67;19.61;99926.41;5076433;28;20477;-78
2022/08/17 07:44:53;;;;;;;9.90;6.25;;;;;;;45.50;19.56;99931.72;5075021;28;20055;-81
2022/08/17 07:50:24;;;;;;;9.25;6.55;;;;;;;46.51;20.06;99924.66;5076140;28;20066;-80
2022/08/17 07:52:49;;;;;;;8.85;6.20;;;;;;;46.55;19.17;99927.69;5075141;28;20016;-80
2022/08/17 07:55:28;;;;;;;8.15;6.13;;;;;;;46.81;18.68;99939.63;5075984;28;20077;-81
2022/08/17 07:57:56;;;;;;;7.63;5.90;;;;;;;47.23;19.60;99926.50;5075172;28;20024;-79
2022/08/17 08:00:23;;;;;;;6.43;5.60;;;;;;;46.31;19.70;99937.56;5076008;28;20024;-78
2022/08/17 08:03:19;;;;;;;11.52;6.03;;;;;;;46.69;18.70;99934.44;5076232;28;20032;-79
2022/08/17 08:05:55;;;;;;;6.95;5.25;;;;;;;46.36;18.78;99933.06;5074060;28;20481;-79
2022/08/17 08:08:24;;;;;;;5.63;5.05;;;;;;;46.40;18.98;99939.84;5058052;28;20051;-79
2022/08/17 08:11:05;;;;;;;8.10;5.10;;;;;;;46.15;18.81;99937.66;5075021;28;20088;-79
2022/08/17 08:13:31;;;;;;;6.75;5.32;;;;;;;46.35;19.04;99931.56;5075104;28;20025;-82
2022/08/17 08:16:12;;;;;;;8.88;5.55;;;;;;;46.55;19.07;99928.44;5075813;28;20029;-82
2022/08/17 08:18:44;;;;;;;6.60;5.88;;;;;;;46.71;18.74;99930.63;5076004;28;20063;-82
2022/08/17 08:21:17;;;;;;;9.00;5.78;;;;;;;46.16;17.84;99939.91;5075960;28;20389;-83
2022/08/17 08:24:15;;;;;;;8.23;5.65;;;;;;;46.33;18.46;99929.28;5076203;28;20017;-84
2022/08/17 08:27:02;;;;;;;10.15;5.60;;;;;;;45.96;19.50;99927.88;5076709;28;20036;-82
2022/08/17 08:29:51;;;;;;;5.93;5.22;;;;;;;46.09;19.21;99931.63;5076328;28;20032;-79
2022/08/17 08:32:46;;;;;;;7.47;5.32;;;;;;;46.10;18.33;99927.88;5076485;28;20032;-78
2022/08/17 08:35:18;;;;;;;11.82;5.63;;;;;;;46.03;18.64;99921.06;5075230;28;20382;-80
2022/08/17 08:37:43;;;;;;;9.57;6.10;;;;;;;46.30;19.31;99914.94;5076197;28;20111;-80
2022/08/17 08:40:28;;;;;;;8.83;5.60;;;;;;;46.36;18.81;99920.94;5075740;28;20103;-78
2022/08/17 08:43:10;;;;;;;9.73;5.53;;;;;;;46.71;18.86;99925.31;5075347;28;20348;-77
2022/08/17 08:45:53;;;;;;;6.45;5.05;;;;;;;46.92;17.19;99925.94;5057251;28;20027;-77
2022/08/17 08:48:28;;;;;;;10.57;6.10;;;;;;;46.76;17.11;99929.06;5075304;28;20385;-75
2022/08/17 08:51:13;;;;;;;7.95;5.10;;;;;;;46.44;17.11;99930.75;5073898;28;20435;-77
2022/08/17 08:53:54;;;;;;;6.85;5.00;;;;;;;45.89;16.98;99932.44;5056975;28;20074;-75
2022/08/17 08:56:53;;;;;;;5.80;5.00;;;;;;;45.46;18.06;99922.66;5075240;28;20029;-76
2022/08/17 08:59:21;;;;;;;7.78;5.38;;;;;;;45.14;18.46;99921.13;5074825;28;20028;-75
2022/08/17 09:01:54;;;;;;;7.03;5.53;;;;;;;44.70;18.62;99909.75;5072542;28;20021;-75
2022/08/17 09:04:52;;;;;;;8.02;5.88;;;;;;;44.55;19.35;99911.22;5071260;28;20109;-75
2022/08/17 09:07:23;;;;;;;9.70;5.72;;;;;;;44.11;19.01;99905.72;5071068;28;20094;-76
2022/08/17 09:10:10;;;;;;;9.52;6.32;;;;;;;43.93;19.28;99903.41;5072844;28;20096;-77
2022/08/17 09:12:43;;;;;;;6.30;5.70;;;;;;;43.89;20.46;99897.34;5071415;28;20021;-77
2022/08/17 09:15:17;;;;;;;11.23;6.15;;;;;;;43.75;20.19;99896.47;5071773;28;20103;-77
2022/08/17 09:18:08;;;;;;;10.15;6.97;;;;;;;43.35;19.99;99893.91;5071670;28;20103;-75
2022/08/17 09:20:41;;;;;;;11.18;6.70;;;;;;;43.05;21.01;99894.44;5073152;28;20033;-77
2022/08/17 09:23:12;;;;;;;11.98;6.93;;;;;;;42.51;22.31;99894.59;5073639;28;20028;-74
2022/08/17 09:25:48;;;;;;;8.95;6.38;;;;;;;42.31;21.97;99886.84;5073249;28;20036;-76
2022/08/17 09:28:27;;;;;;;9.25;6.78;;;;;;;42.18;21.69;99882.16;5073167;28;20485;-78
2022/08/17 09:31:01;;;;;;;7.65;6.68;;;;;;;41.87;21.95;99890.03;5072999;28;20081;-76
2022/08/17 09:33:28;;;;;;;7.70;5.93;;;;;;;41.48;22.56;99879.69;5057040;28;20035;-75
2022/08/17 09:36:20;;;;;;;5.82;5.22;;;;;;;40.94;21.56;99876.50;5072913;28;20032;-75
2022/08/17 09:39:02;;;;;;;6.07;5.47;;;;;;;39.42;22.42;99886.72;5072691;28;20086;-77
2022/08/17 09:41:34;;;;;;;6.97;6.05;;;;;;;38.68;23.91;99884.09;5072586;28;20443;-77
2022/08/17 09:44:18;;;;;;;8.13;5.65;;;;;;;38.30;24.94;99874.03;5072737;28;20059;-76
2022/08/17 09:46:51;;;;;;;9.75;5.88;;;;;;;38.20;24.93;99864.78;5072745;28;20052;-76
2022/08/17 09:49:29;;;;;;;7.15;4.93;;;;;;;37.85;25.23;99866.75;5072915;28;20031;-76
2022/08/17 09:51:59;;;;;;;10.73;6.53;;;;;;;37.80;25.62;99871.06;5073731;28;20063;-76
2022/08/17 09:54:30;;;;;;;7.85;6.32;;;;;;;37.72;27.34;99871.53;5056103;28;20028;-75
2022/08/17 09:56:55;;;;;;;6.10;5.20;;;;;;;37.67;26.31;99872.09;5072841;28;20096;-76
2022/08/17 10:00:18;;;;;;;7.43;5.72;;;;;;;37.56;26.39;99880.00;5073905;28;20036;-77
2022/08/17 10:03:01;;;;;;;7.15;6.13;;;;;;;37.44;26.51;99870.66;5015811;28;20053;-76
2022/08/17 10:05:45;;;;;;;7.22;5.80;;;;;;;37.44;27.98;99863.91;5031867;28;20497;-77
2022/08/17 10:08:21;;;;;;;10.45;6.05;;;;;;;37.26;28.49;99852.91;5065753;28;20404;-77
2022/08/17 10:11:09;;;;;;;8.82;5.50;;;;;;;37.10;25.51;99855.38;5073796;28;20020;-78
2022/08/17 10:13:47;;;;;;;6.95;5.30;;;;;;;36.92;26.56;99860.72;5073903;28;20031;-77
2022/08/17 10:16:48;;;;;;;5.30;4.80;;;;;;;36.61;26.71;99852.94;5072410;28;20110;-77
2022/08/17 10:19:17;;;;;;;5.95;5.18;;;;;;;36.35;27.05;99860.88;5072012;28;20032;-77
2022/08/17 10:27:24;;;;;;;6.68;4.95;;;;;;;36.25;27.54;99855.31;5080146;28;20090;-77
2022/08/17 10:29:53;;;;;;;5.88;5.38;;;;;;;36.09;26.43;99857.69;5055369;28;20054;-75
2022/08/17 10:32:34;;;;;;;9.10;5.93;;;;;;;35.90;27.20;99853.25;5071954;28;20036;-76
2022/08/17 10:35:02;;;;;;;6.35;5.13;;;;;;;35.91;27.46;99857.00;5072256;28;20025;-77
2022/08/17 10:37:28;;;;;;;6.25;5.65;;;;;;;35.80;27.19;99858.81;5071925;28;20064;-75
2022/08/17 10:39:56;;;;;;;6.60;5.63;;;;;;;35.74;27.40;99857.84;5072995;28;20060;-76
2022/08/17 10:42:33;;;;;;;6.43;4.90;;;;;;;35.65;29.11;99853.03;5071692;28;20116;-79
2022/08/17 10:45:06;;;;;;;9.93;6.43;;;;;;;35.57;28.35;99865.34;5055263;28;20032;-76
2022/08/17 10:47:58;;;;;;;7.28;5.70;;;;;;;35.52;31.50;99860.66;5073439;28;20029;-78
2022/08/17 10:50:54;;;;;;;4.95;4.55;;;;;;;35.43;29.14;99861.78;5071998;28;20028;-77
2022/08/17 10:53:31;;;;;;;7.13;6.45;;;;;;;35.29;31.29;99864.19;5073363;28;20021;-77
2022/08/17 10:56:12;;;;;;;6.60;5.55;;;;;;;34.66;30.84;99856.34;5073617;28;20454;-76
2022/08/17 10:58:53;;;;;;;6.40;5.75;;;;;;;34.55;30.83;99860.28;5073311;28;20029;-77
2022/08/17 11:01:42;;;;;;;9.15;6.00;;;;;;;34.60;29.91;99864.19;5073555;28;20033;-75
2022/08/17 11:04:35;;;;;;;8.07;6.00;;;;;;;34.50;32.30;99864.53;5073001;28;20136;-76
2022/08/17 11:07:13;;;;;;;6.47;5.80;;;;;;;34.47;30.15;99865.09;5072567;28;20061;-77
2022/08/17 11:10:04;;;;;;;7.22;5.63;;;;;;;34.49;30.93;99860.03;5071777;28;20415;-76
2022/08/17 11:12:50;;;;;;;6.88;5.82;;;;;;;34.50;32.20;99851.88;5072976;28;20055;-76
2022/08/17 11:15:27;;;;;;;8.20;5.82;;;;;;;34.40;30.34;99858.16;5071563;28;20028;-76
2022/08/17 11:18:30;;;;;;;6.28;5.57;;;;;;;34.38;29.14;99852.09;5073359;28;20480;-76
2022/08/17 11:20:55;;;;;;;6.43;5.60;;;;;;;34.30;29.54;99852.53;5072870;28;20033;-76
2022/08/17 11:23:58;;;;;;;7.77;5.67;;;;;;;34.26;30.17;99848.63;5071442;28;20027;-77
2022/08/17 11:26:35;;;;;;;10.30;6.13;;;;;;;34.18;29.98;99849.00;5072749;28;20620;-76
2022/08/17 11:29:08;;;;;;;8.88;5.20;;;;;;;33.98;28.54;99845.09;5071722;28;20028;-77
2022/08/17 11:31:39;;;;;;;8.68;5.60;;;;;;;33.85;28.41;99846.75;5071761;28;20047;-76
2022/08/17 11:34:20;;;;;;;;;;;;;;;33.72;28.86;99855.75;5071925;28;20507;-76
2022/08/17 11:37:01;;;;;;;6.57;5.28;;;;;;;33.48;28.98;99852.34;5071502;28;19908;-76
2022/08/17 11:40:04;;;;;;;11.35;5.70;;;;;;;33.46;29.30;99846.34;5071408;28;20029;-76
2022/08/17 11:42:48;;;;;;;7.65;5.43;;;;;;;33.38;29.32;99842.97;5043420;28;20036;-77
2022/08/17 11:45:50;;;;;;;12.43;6.57;;;;;;;33.43;30.62;99830.63;5072737;28;20023;-76
2022/08/17 11:51:59;;;;;;;8.15;5.55;;;;;;;33.12;29.29;99842.44;5069831;28;20077;-76
2022/08/17 11:54:45;;;;;;;11.43;5.20;;;;;;;33.04;29.62;99827.97;5077129;28;20025;-78
2022/08/17 11:57:26;;;;;;;6.35;5.25;;;;;;;32.98;29.72;99821.75;5074985;28;20028;-76
2022/08/17 11:59:52;;;;;;;6.20;5.13;;;;;;;32.92;29.56;99830.34;5076232;28;20032;-76
2022/08/17 12:02:29;;;;;;;9.80;6.00;;;;;;;32.89;30.98;99824.97;5058457;28;20065;-76
2022/08/17 12:05:13;;;;;;;5.57;5.05;;;;;;;32.88;30.01;99830.13;5076074;28;20056;-75
2022/08/17 12:07:50;;;;;;;7.40;5.75;;;;;;;32.85;30.36;99822.59;5075993;28;20136;-77
2022/08/17 12:10:21;;;;;;;8.57;5.93;;;;;;;32.92;30.48;99817.75;5058097;28;20020;-75
2022/08/17 12:12:49;;;;;;;5.97;5.38;;;;;;;32.89;30.09;99819.81;5057983;28;20016;-76
2022/08/17 12:15:24;;;;;;;9.05;5.35;;;;;;;32.91;30.56;99825.84;5074687;28;20381;-76